Time;durP1;ratioP1;P1;durP2;ratioP2;P2;SDS_P1;SDS_P2;PMS_P1;PMS_P2;Temp;Humidity;BMP_temperature;BMP_pressure;BME280_temperature;BME280_humidity;BME280_pressure;Samples;Min_cycle;Max_cycle;Signal;HPM_P1;HPM_P2
2024/03/22 00:01:10;;;;;;;36.85;25.75;;;;;;;15.42;82.83;100870.22;5056849;28;20041;-76
2024/03/22 00:04:15;;;;;;;40.33;25.75;;;;;;;15.15;84.13;100867.53;5057036;28;20057;-76
2024/03/22 00:07:20;;;;;;;38.53;24.77;;;;;;;15.09;84.67;100871.69;5056888;28;20468;-76
2024/03/22 00:10:24;;;;;;;37.33;25.52;;;;;;;15.18;83.89;100872.66;5056807;28;20049;-76
2024/03/22 00:13:28;;;;;;;46.65;26.95;;;;;;;15.19;83.95;100879.75;5056793;28;20045;-76
2024/03/22 00:16:33;;;;;;;38.30;25.88;;;;;;;15.19;84.61;100885.16;5056654;28;20056;-76
2024/03/22 00:19:38;;;;;;;33.80;23.70;;;;;;;15.08;84.36;100877.25;5056736;28;20041;-76
2024/03/22 00:22:43;;;;;;;32.55;21.65;;;;;;;14.80;83.97;100869.16;5056574;28;20045;-76
2024/03/22 00:25:47;;;;;;;33.38;20.50;;;;;;;14.69;84.51;100872.03;5056547;28;20033;-77
2024/03/22 00:28:52;;;;;;;30.30;21.02;;;;;;;14.68;84.30;100867.63;5056587;28;20469;-76
2024/03/22 00:31:56;;;;;;;28.42;20.17;;;;;;;14.82;84.13;100877.97;5056396;28;20045;-75
2024/03/22 00:35:01;;;;;;;32.20;20.00;;;;;;;14.94;83.13;100878.59;5056512;28;20041;-76
2024/03/22 00:38:05;;;;;;;28.20;19.95;;;;;;;14.91;83.39;100878.94;5056279;28;20041;-76
2024/03/22 00:41:10;;;;;;;29.77;20.30;;;;;;;14.71;83.93;100870.06;5043553;28;20037;-76
2024/03/22 00:44:14;;;;;;;31.98;21.20;;;;;;;14.33;85.11;100862.91;4994516;28;20042;-77
2024/03/22 00:47:19;;;;;;;30.35;20.80;;;;;;;14.48;84.23;100865.16;4994280;28;20042;-77
2024/03/22 00:50:23;;;;;;;33.92;21.48;;;;;;;14.49;84.65;100861.47;5008604;28;20053;-77
2024/03/22 00:53:28;;;;;;;31.90;21.60;;;;;;;14.55;84.21;100861.72;5022360;28;20049;-77
2024/03/22 00:56:33;;;;;;;33.83;22.00;;;;;;;14.36;84.62;100856.38;5034008;28;20070;-76
2024/03/22 00:59:37;;;;;;;35.92;22.60;;;;;;;14.41;85.32;100850.53;5022315;28;20516;-76
2024/03/22 01:02:42;;;;;;;32.22;20.85;;;;;;;14.59;84.58;100862.28;5013741;28;20046;-76
2024/03/22 01:05:47;;;;;;;32.83;20.58;;;;;;;14.67;83.83;100862.38;5014057;28;20037;-76
2024/03/22 01:08:54;;;;;;;33.05;21.42;;;;;;;14.56;83.94;100858.03;5013216;28;20050;-76
2024/03/22 01:11:58;;;;;;;30.42;20.65;;;;;;;14.63;83.52;100855.56;5014071;28;20050;-76
2024/03/22 01:15:03;;;;;;;35.65;20.63;;;;;;;14.59;83.88;100854.16;5013327;28;20050;-76
2024/03/22 01:18:08;;;;;;;30.83;20.88;;;;;;;14.69;82.97;100860.38;5014140;28;20050;-75
2024/03/22 01:21:13;;;;;;;29.13;19.85;;;;;;;14.68;82.68;100856.84;5044765;28;20044;-75
2024/03/22 01:24:17;;;;;;;27.23;19.80;;;;;;;14.52;83.23;100848.50;5050338;28;20049;-76
2024/03/22 01:27:21;;;;;;;31.25;20.67;;;;;;;14.51;83.19;100848.66;5072904;28;20045;-76
2024/03/22 01:30:29;;;;;;;29.45;21.30;;;;;;;14.50;83.27;100858.59;5073073;28;20037;-75
2024/03/22 01:33:34;;;;;;;30.17;19.05;;;;;;;14.43;83.01;100856.63;5074818;28;20041;-76
2024/03/22 01:36:38;;;;;;;30.02;19.98;;;;;;;14.24;83.27;100862.91;5075011;28;20045;-76
2024/03/22 01:39:43;;;;;;;31.60;19.92;;;;;;;14.21;83.35;100858.66;5075339;28;20456;-76
2024/03/22 01:42:48;;;;;;;33.15;20.17;;;;;;;14.13;83.24;100865.75;5074966;28;20044;-77
2024/03/22 01:45:52;;;;;;;28.95;19.45;;;;;;;14.15;82.36;100871.88;5075048;28;20040;-76
2024/03/22 01:48:57;;;;;;;32.85;20.95;;;;;;;13.76;84.35;100862.09;5074769;28;20044;-76
2024/03/22 01:52:03;;;;;;;28.85;19.70;;;;;;;13.61;85.93;100867.94;5074734;28;20044;-76
2024/03/22 01:55:08;;;;;;;34.13;20.73;;;;;;;13.66;85.17;100864.81;5074159;28;20044;-76
2024/03/22 01:58:13;;;;;;;30.45;20.95;;;;;;;13.77;84.43;100855.72;5074588;28;20048;-76
2024/03/22 02:01:17;;;;;;;29.15;19.63;;;;;;;13.80;84.69;100858.16;5073762;28;20044;-76
2024/03/22 02:04:21;;;;;;;28.27;19.45;;;;;;;13.83;84.80;100849.75;5074230;28;20488;-76
2024/03/22 02:07:30;;;;;;;34.70;21.15;;;;;;;13.64;85.88;100859.56;5074558;28;20040;-78
2024/03/22 02:10:34;;;;;;;30.88;20.13;;;;;;;13.74;85.15;100856.88;5074807;28;20480;-77
2024/03/22 02:13:39;;;;;;;33.40;20.13;;;;;;;13.69;86.03;100851.91;5074609;28;20044;-75
2024/03/22 02:16:45;;;;;;;28.70;20.05;;;;;;;13.77;85.03;100855.72;5074428;28;20053;-76
2024/03/22 02:19:49;;;;;;;29.90;20.13;;;;;;;13.84;85.17;100854.16;5073306;28;20049;-76
2024/03/22 02:22:54;;;;;;;26.60;18.45;;;;;;;13.98;84.72;100854.56;5074040;28;20044;-77
2024/03/22 02:25:58;;;;;;;28.25;19.48;;;;;;;14.07;84.22;100864.50;5073685;28;20455;-77
2024/03/22 02:29:03;;;;;;;33.60;20.85;;;;;;;14.01;83.89;100861.53;5074419;28;20040;-76
2024/03/22 02:32:07;;;;;;;31.08;19.50;;;;;;;13.78;84.51;100855.56;5061865;28;20041;-76
2024/03/22 02:35:11;;;;;;;28.60;19.63;;;;;;;13.36;86.26;100862.22;5073279;28;20040;-76
2024/03/22 02:38:16;;;;;;;30.40;21.10;;;;;;;13.40;85.85;100859.13;5074083;28;20048;-76
2024/03/22 02:41:21;;;;;;;29.58;19.02;;;;;;;13.41;85.77;100857.25;5073422;28;20040;-75
2024/03/22 02:44:26;;;;;;;32.00;20.15;;;;;;;13.64;85.35;100862.28;5074280;28;20048;-77
2024/03/22 02:47:30;;;;;;;31.23;20.45;;;;;;;13.61;85.63;100867.06;5073893;28;20052;-77
2024/03/22 02:50:37;;;;;;;30.58;20.38;;;;;;;13.58;85.44;100870.06;5064662;28;20041;-77
2024/03/22 02:53:41;;;;;;;31.35;20.77;;;;;;;13.68;85.10;100871.78;5053806;28;20045;-77
2024/03/22 02:56:46;;;;;;;28.83;19.80;;;;;;;13.72;85.21;100876.88;5041546;28;20048;-78
2024/03/22 02:59:50;;;;;;;33.78;21.85;;;;;;;13.44;86.38;100878.56;5054301;28;20049;-77
2024/03/22 03:02:54;;;;;;;35.33;22.25;;;;;;;13.41;86.67;100868.91;5053855;28;20053;-77
2024/03/22 03:05:58;;;;;;;36.95;23.42;;;;;;;13.24;87.33;100874.13;5053710;28;20056;-75
2024/03/22 03:09:07;;;;;;;37.08;24.27;;;;;;;13.40;86.80;100869.94;5053804;28;20049;-76
2024/03/22 03:12:13;;;;;;;40.90;26.10;;;;;;;13.14;88.75;100863.34;5053302;28;20400;-75
2024/03/22 03:15:17;;;;;;;42.72;26.58;;;;;;;13.23;89.09;100865.22;5053505;28;20044;-75
2024/03/22 03:18:22;;;;;;;38.92;26.15;;;;;;;13.47;87.92;100860.28;5053432;28;20065;-76
2024/03/22 03:21:26;;;;;;;41.25;26.13;;;;;;;13.38;87.89;100858.41;5041690;28;20049;-76
2024/03/22 03:24:31;;;;;;;42.90;27.75;;;;;;;13.44;88.13;100863.25;5041108;28;20049;-78
2024/03/22 03:27:35;;;;;;;43.63;26.92;;;;;;;13.43;87.72;100858.84;5053176;28;20056;-75
2024/03/22 03:30:40;;;;;;;44.92;27.30;;;;;;;13.30;88.39;100862.81;5053645;28;20048;-78
2024/03/22 03:33:44;;;;;;;46.50;29.55;;;;;;;13.24;88.88;100872.28;5056259;28;20053;-77
2024/03/22 03:36:49;;;;;;;47.65;29.15;;;;;;;12.98;89.44;100866.53;5057949;28;20044;-77
2024/03/22 03:39:53;;;;;;;42.97;27.60;;;;;;;13.27;88.16;100872.03;5057840;28;20045;-77
2024/03/22 03:42:57;;;;;;;39.90;26.60;;;;;;;13.35;87.72;100869.50;5057668;28;20037;-77
2024/03/22 03:46:02;;;;;;;45.15;27.00;;;;;;;13.27;87.16;100877.41;5057651;28;20376;-74
2024/03/22 03:49:06;;;;;;;41.08;24.67;;;;;;;13.19;86.67;100882.63;5056836;28;20045;-77
2024/03/22 03:52:10;;;;;;;41.33;23.83;;;;;;;13.12;86.76;100868.00;5033533;28;20037;-75
2024/03/22 03:55:15;;;;;;;38.85;23.70;;;;;;;13.02;86.77;100880.56;5057152;28;20037;-76
2024/03/22 03:58:19;;;;;;;36.63;22.13;;;;;;;13.11;86.42;100878.94;5057022;28;20473;-76
2024/03/22 04:01:24;;;;;;;40.90;21.73;;;;;;;13.28;85.53;100872.88;5057011;28;20045;-76
2024/03/22 04:04:28;;;;;;;33.40;21.50;;;;;;;13.38;85.64;100885.38;5056485;28;20396;-76
2024/03/22 04:07:33;;;;;;;37.20;22.48;;;;;;;13.16;85.59;100885.59;5056783;28;20036;-75
2024/03/22 04:10:37;;;;;;;35.80;22.48;;;;;;;12.95;86.83;100884.81;5056483;28;20392;-76
2024/03/22 04:13:42;;;;;;;33.90;21.83;;;;;;;12.78;87.51;100880.06;5056853;28;20040;-75
2024/03/22 04:16:47;;;;;;;36.97;22.42;;;;;;;12.68;88.47;100873.78;5056291;28;20040;-76
2024/03/22 04:19:52;;;;;;;33.30;20.80;;;;;;;12.90;87.04;100869.06;5056686;28;20041;-76
2024/03/22 04:22:56;;;;;;;38.67;21.65;;;;;;;12.74;87.91;100870.56;5056620;28;20049;-76
2024/03/22 04:26:01;;;;;;;37.35;22.30;;;;;;;12.77;87.89;100865.75;5032574;28;20484;-76
2024/03/22 04:29:05;;;;;;;33.85;21.95;;;;;;;12.83;88.25;100867.91;5063362;28;20066;-75
2024/03/22 04:32:10;;;;;;;34.42;22.17;;;;;;;12.86;87.58;100872.16;5052697;28;20045;-76
2024/03/22 04:35:14;;;;;;;35.03;21.77;;;;;;;12.92;87.07;100867.06;5063953;28;20403;-76
2024/03/22 04:38:18;;;;;;;34.75;21.80;;;;;;;12.99;85.64;100886.22;5076320;28;20045;-75
2024/03/22 04:41:23;;;;;;;33.38;20.90;;;;;;;12.97;85.74;100872.91;5076110;28;20048;-76
2024/03/22 04:44:28;;;;;;;34.53;21.58;;;;;;;12.89;86.87;100879.97;5076141;28;20464;-75
2024/03/22 04:47:33;;;;;;;38.13;21.98;;;;;;;12.86;86.74;100874.88;5076195;28;20391;-76
2024/03/22 04:50:37;;;;;;;36.63;21.67;;;;;;;12.66;88.89;100881.16;5075561;28;20048;-76
2024/03/22 04:53:42;;;;;;;29.75;21.05;;;;;;;12.75;88.10;100874.94;5076135;28;20460;-76
2024/03/22 04:56:46;;;;;;;37.50;21.80;;;;;;;12.90;88.05;100881.69;5075746;28;20052;-76
2024/03/22 04:59:51;;;;;;;36.50;20.70;;;;;;;12.80;88.65;100878.09;5076043;28;20045;-76
2024/03/22 05:02:55;;;;;;;35.83;21.55;;;;;;;12.80;88.28;100880.78;5075809;28;20048;-76
2024/03/22 05:06:03;;;;;;;36.60;21.08;;;;;;;12.73;89.22;100874.25;5063390;28;20049;-76
2024/03/22 05:09:10;;;;;;;29.25;21.60;;;;;;;12.76;89.14;100882.06;5075746;28;20456;-76
2024/03/22 05:12:14;;;;;;;38.13;22.23;;;;;;;12.49;89.96;100879.09;5075908;28;20052;-76
2024/03/22 05:15:19;;;;;;;36.78;22.77;;;;;;;12.79;89.62;100887.16;5075241;28;20052;-76
2024/03/22 05:18:23;;;;;;;32.65;22.10;;;;;;;12.92;88.43;100888.63;5060832;28;20044;-76
2024/03/22 05:21:27;;;;;;;35.30;22.10;;;;;;;12.83;89.03;100892.16;5043352;28;20045;-76
2024/03/22 05:24:32;;;;;;;37.00;22.95;;;;;;;13.08;87.61;100877.38;5043170;28;20045;-76
2024/03/22 05:27:36;;;;;;;34.17;22.00;;;;;;;13.05;87.85;100883.00;5055201;28;20045;-76
2024/03/22 05:30:41;;;;;;;33.72;21.58;;;;;;;12.96;87.96;100886.53;5055404;28;20045;-76
2024/03/22 05:33:46;;;;;;;35.38;22.60;;;;;;;13.15;87.54;100896.53;5054882;28;20053;-76
2024/03/22 05:36:51;;;;;;;37.05;21.48;;;;;;;13.34;86.88;100889.34;5042649;28;20052;-75
2024/03/22 05:39:55;;;;;;;36.22;21.40;;;;;;;13.41;86.31;100889.63;5055144;28;20037;-76
2024/03/22 05:43:01;;;;;;;37.60;22.50;;;;;;;13.49;85.80;100893.34;5055324;28;20044;-76
2024/03/22 05:46:05;;;;;;;31.13;21.52;;;;;;;13.77;85.23;100902.47;5054716;28;20392;-76
2024/03/22 05:49:10;;;;;;;30.73;20.55;;;;;;;14.00;84.20;100889.53;5054726;28;20053;-76
2024/03/22 05:52:14;;;;;;;33.47;20.83;;;;;;;14.17;83.12;100905.81;5054944;28;20049;-75
2024/03/22 05:55:19;;;;;;;35.67;21.65;;;;;;;14.02;83.37;100901.03;5054356;28;20388;-75
2024/03/22 05:58:23;;;;;;;32.03;21.27;;;;;;;14.12;83.33;100894.59;5042021;28;20033;-76
2024/03/22 06:01:28;;;;;;;32.00;20.17;;;;;;;14.40;82.26;100889.31;5055012;28;20365;-76
2024/03/22 06:04:32;;;;;;;30.58;20.75;;;;;;;14.50;81.59;100891.00;5054668;28;20477;-76
2024/03/22 06:07:41;;;;;;;31.25;20.90;;;;;;;14.59;80.98;100892.81;5054022;28;20037;-76
2024/03/22 06:10:46;;;;;;;31.75;21.00;;;;;;;14.65;80.41;100888.69;5054694;28;20049;-76
2024/03/22 06:13:51;;;;;;;27.90;19.45;;;;;;;14.93;79.62;100891.28;5054506;28;20040;-76
2024/03/22 06:16:55;;;;;;;29.48;19.08;;;;;;;15.21;78.47;100894.00;5054550;28;20049;-75
2024/03/22 06:20:00;;;;;;;35.20;19.85;;;;;;;15.33;78.08;100900.91;5041718;28;20392;-75
2024/03/22 06:23:05;;;;;;;27.70;19.48;;;;;;;15.49;77.29;100898.38;5054328;28;20053;-76
2024/03/22 06:26:09;;;;;;;28.75;20.02;;;;;;;15.73;76.49;100900.47;5042030;28;20045;-76
2024/03/22 06:29:16;;;;;;;29.25;20.02;;;;;;;15.85;76.46;100904.69;5053922;28;20037;-77
2024/03/22 06:32:20;;;;;;;30.48;18.95;;;;;;;16.24;74.94;100906.03;5054355;28;20045;-78
2024/03/22 06:35:25;;;;;;;29.52;20.08;;;;;;;16.44;74.80;100917.53;5053929;28;20044;-78
2024/03/22 06:38:32;;;;;;;31.80;20.80;;;;;;;16.37;73.70;100925.41;5054640;28;20464;-77
2024/03/22 06:41:37;;;;;;;26.77;19.00;;;;;;;16.35;73.71;100932.00;5061645;28;20040;-73
2024/03/22 06:44:41;;;;;;;29.27;17.95;;;;;;;16.47;73.04;100925.31;5051939;28;20052;-73
2024/03/22 06:47:46;;;;;;;30.67;19.08;;;;;;;16.37;74.07;100932.72;5053022;28;20432;-72
2024/03/22 06:50:50;;;;;;;40.47;27.05;;;;;;;16.61;74.46;100932.94;5065469;28;20048;-72
2024/03/22 06:53:54;;;;;;;32.75;20.55;;;;;;;16.85;72.56;100939.34;5083876;28;20048;-71
2024/03/22 06:56:59;;;;;;;28.60;18.73;;;;;;;16.77;72.67;100938.44;5073165;28;20045;-73
2024/03/22 07:00:04;;;;;;;24.20;17.58;;;;;;;16.94;71.95;100931.28;5072913;28;20045;-77
2024/03/22 07:03:08;;;;;;;27.92;18.00;;;;;;;17.14;70.72;100940.84;5084883;28;20379;-73
2024/03/22 07:06:14;;;;;;;25.95;17.20;;;;;;;17.20;70.26;100938.34;5073718;28;20048;-81
2024/03/22 07:09:18;;;;;;;23.55;16.92;;;;;;;17.40;70.38;100941.66;5073313;28;20040;-78
2024/03/22 07:12:23;;;;;;;25.38;17.85;;;;;;;17.33;70.53;100946.84;5040219;28;20049;-76
2024/03/22 07:15:27;;;;;;;25.67;18.30;;;;;;;17.34;70.50;100947.72;5051556;28;20049;-76
2024/03/22 07:18:32;;;;;;;26.27;18.35;;;;;;;17.60;69.38;100944.97;5051306;28;20053;-73
2024/03/22 07:21:36;;;;;;;25.38;17.20;;;;;;;17.64;69.47;100946.31;5051514;28;20052;-75
2024/03/22 07:24:40;;;;;;;24.75;18.63;;;;;;;17.81;68.57;100948.91;5039794;28;20392;-76
2024/03/22 07:27:46;;;;;;;25.42;16.80;;;;;;;17.93;67.60;100960.31;5050823;28;20053;-74
2024/03/22 07:30:50;;;;;;;24.17;17.00;;;;;;;18.18;67.58;100960.19;5063206;28;20041;-75
2024/03/22 07:33:55;;;;;;;25.35;16.83;;;;;;;18.10;67.66;100971.03;5071365;28;20036;-73
2024/03/22 07:36:59;;;;;;;25.58;17.98;;;;;;;18.18;67.33;100965.59;5071477;28;20045;-76
2024/03/22 07:40:05;;;;;;;28.60;16.92;;;;;;;18.53;66.91;100964.47;5059929;28;20040;-75
2024/03/22 07:43:09;;;;;;;23.10;17.63;;;;;;;18.97;64.87;100962.16;5072498;28;20484;-76
2024/03/22 07:46:14;;;;;;;23.27;17.27;;;;;;;19.74;62.54;100963.25;5073088;28;20407;-78
2024/03/22 07:49:19;;;;;;;25.85;18.13;;;;;;;20.47;60.51;100963.59;5073374;28;20044;-78
2024/03/22 07:52:24;;;;;;;22.52;16.55;;;;;;;21.76;56.10;100965.75;5073271;28;20044;-80
2024/03/22 07:55:28;;;;;;;22.95;16.65;;;;;;;22.67;53.06;100954.94;5073132;28;20048;-78
2024/03/22 07:58:33;;;;;;;26.23;17.67;;;;;;;23.43;50.15;100957.78;5073169;28;20372;-78
2024/03/22 08:01:38;;;;;;;20.17;15.40;;;;;;;25.16;45.81;100961.25;5073298;28;20451;-75
2024/03/22 08:04:42;;;;;;;17.88;14.93;;;;;;;25.97;43.57;100958.88;5072349;28;20096;-83
2024/03/22 08:07:47;;;;;;;19.13;15.10;;;;;;;27.01;41.12;100950.91;5072559;28;20403;-82
2024/03/22 08:10:52;;;;;;;19.83;16.15;;;;;;;28.17;37.89;100957.16;5072000;28;20041;-73
2024/03/22 08:14:02;;;;;;;18.58;15.13;;;;;;;29.30;36.18;100955.06;5078713;28;20047;-71
2024/03/22 08:17:09;;;;;;;21.73;17.20;;;;;;;29.17;36.83;100950.59;5070945;28;20048;-75
2024/03/22 08:20:13;;;;;;;21.75;16.45;;;;;;;29.69;35.74;100951.47;5075450;28;20048;-73
2024/03/22 08:23:20;;;;;;;19.92;16.55;;;;;;;30.46;34.25;100952.75;5075965;28;20044;-74
2024/03/22 08:26:24;;;;;;;19.55;16.08;;;;;;;30.83;33.42;100951.16;5078823;28;20048;-72
2024/03/22 08:29:29;;;;;;;21.92;16.20;;;;;;;31.94;32.02;100943.56;5074909;28;20044;-73
2024/03/22 08:32:33;;;;;;;21.10;16.55;;;;;;;31.75;32.06;100942.25;5074969;28;20044;-72
2024/03/22 08:35:38;;;;;;;20.98;16.10;;;;;;;31.82;32.40;100943.72;5086833;28;20044;-72
2024/03/22 08:38:43;;;;;;;21.27;17.10;;;;;;;32.89;30.04;100946.44;5078079;28;20049;-74
2024/03/22 08:41:48;;;;;;;23.35;18.52;;;;;;;32.70;30.10;100957.16;5075799;28;20048;-74
2024/03/22 08:44:52;;;;;;;23.30;17.15;;;;;;;32.48;30.95;100963.88;5078849;28;20044;-73
2024/03/22 08:47:57;;;;;;;20.20;15.68;;;;;;;32.58;30.94;100956.50;5086768;28;20048;-74
2024/03/22 08:51:02;;;;;;;20.90;15.98;;;;;;;32.67;30.61;100957.69;5062783;28;20053;-73
2024/03/22 08:54:07;;;;;;;23.83;18.02;;;;;;;31.65;32.19;100969.88;5066567;28;20484;-71
2024/03/22 08:57:12;;;;;;;27.00;17.60;;;;;;;31.16;33.30;100966.13;5075301;28;20040;-72
2024/03/22 09:00:17;;;;;;;22.25;17.42;;;;;;;31.26;32.65;100969.84;5063125;28;20399;-72
2024/03/22 09:03:21;;;;;;;21.08;18.23;;;;;;;30.75;33.62;100968.22;5054985;28;20433;-72
2024/03/22 09:06:26;;;;;;;22.88;18.65;;;;;;;30.51;33.27;100974.16;5055202;28;20049;-70
2024/03/22 09:09:31;;;;;;;21.35;17.17;;;;;;;30.78;33.23;100973.25;5055136;28;20480;-73
2024/03/22 09:12:36;;;;;;;17.73;15.32;;;;;;;30.53;33.57;100967.28;5054973;28;20400;-72
2024/03/22 09:15:40;;;;;;;22.17;18.23;;;;;;;30.37;34.26;100961.72;5055087;28;20048;-73
2024/03/22 09:18:45;;;;;;;17.90;15.27;;;;;;;30.86;33.01;100966.44;5042508;28;20045;-72
2024/03/22 09:21:49;;;;;;;19.27;16.08;;;;;;;30.01;33.89;100963.78;5054747;28;20480;-73
2024/03/22 09:24:54;;;;;;;19.48;16.48;;;;;;;29.59;34.62;100959.56;5055147;28;20041;-74
2024/03/22 09:27:59;;;;;;;24.83;18.15;;;;;;;27.51;38.43;100960.75;5054648;28;20041;-74
2024/03/22 09:31:07;;;;;;;20.27;16.77;;;;;;;26.80;40.52;100957.66;5053753;28;20041;-74
2024/03/22 09:34:15;;;;;;;22.67;18.17;;;;;;;25.48;43.69;100964.16;5054810;28;20045;-74
2024/03/22 09:37:20;;;;;;;25.20;18.58;;;;;;;24.83;45.10;100954.97;5042656;28;20045;-74
2024/03/22 09:40:25;;;;;;;24.52;18.55;;;;;;;24.35;47.63;100948.81;5054584;28;20049;-74
2024/03/22 09:43:32;;;;;;;24.30;18.85;;;;;;;24.24;47.94;100945.84;5054739;28;20049;-73
2024/03/22 09:46:38;;;;;;;24.92;18.90;;;;;;;23.91;49.49;100941.09;5054401;28;20041;-73
2024/03/22 09:49:48;;;;;;;21.98;17.67;;;;;;;23.98;49.97;100934.78;5054321;28;20049;-73
2024/03/22 09:52:53;;;;;;;23.88;18.48;;;;;;;24.10;49.83;100930.41;5053932;28;20041;-74
2024/03/22 09:56:01;;;;;;;25.77;17.48;;;;;;;23.37;51.76;100934.78;5054550;28;20037;-74
2024/03/22 09:59:10;;;;;;;20.83;17.08;;;;;;;23.07;52.28;100936.06;5054146;28;20041;-75
2024/03/22 10:02:16;;;;;;;22.27;16.95;;;;;;;23.08;52.47;100924.06;5054101;28;20049;-70
2024/03/22 10:05:21;;;;;;;20.35;15.73;;;;;;;22.87;53.88;100927.72;5054014;28;20040;-71
2024/03/22 10:08:26;;;;;;;22.70;17.00;;;;;;;23.11;52.98;100927.22;5053885;28;20399;-70
2024/03/22 10:11:30;;;;;;;24.80;18.58;;;;;;;22.97;52.21;100927.34;5053947;28;20037;-70
2024/03/22 10:14:36;;;;;;;21.17;16.30;;;;;;;22.86;53.70;100920.53;5053714;28;20045;-70
2024/03/22 10:17:41;;;;;;;21.52;16.75;;;;;;;22.81;52.05;100930.41;5054081;28;20480;-69
2024/03/22 10:20:46;;;;;;;21.15;17.15;;;;;;;22.86;52.95;100925.19;5053556;28;20049;-69
2024/03/22 10:23:53;;;;;;;25.77;18.50;;;;;;;22.55;52.34;100920.06;5041528;28;20392;-69
2024/03/22 10:26:58;;;;;;;22.20;18.02;;;;;;;22.63;51.25;100906.28;5053469;28;20044;-69
2024/03/22 10:30:03;;;;;;;22.98;19.30;;;;;;;22.50;53.02;100907.00;5054704;28;20041;-69
2024/03/22 10:33:08;;;;;;;27.70;19.60;;;;;;;22.08;53.29;100903.44;5053452;28;20049;-70
2024/03/22 10:36:13;;;;;;;26.10;20.48;;;;;;;22.08;55.22;100896.09;5053620;28;20041;-71
2024/03/22 10:39:19;;;;;;;25.75;19.83;;;;;;;21.96;56.38;100897.66;5053622;28;20392;-71
2024/03/22 10:42:23;;;;;;;29.27;21.52;;;;;;;21.75;56.96;100900.38;5053907;28;20045;-71
2024/03/22 10:45:29;;;;;;;28.98;22.27;;;;;;;21.90;57.21;100888.34;5053484;28;20045;-69
2024/03/22 10:48:34;;;;;;;28.67;22.95;;;;;;;21.48;57.79;100892.91;5053164;28;20045;-69
2024/03/22 10:51:38;;;;;;;30.13;23.05;;;;;;;21.51;56.64;100890.63;5053463;28;20053;-69
2024/03/22 10:54:46;;;;;;;33.03;24.48;;;;;;;21.56;56.82;100882.69;5040871;28;20045;-70
2024/03/22 10:57:51;;;;;;;35.78;26.77;;;;;;;21.53;57.11;100880.34;5053354;28;20045;-70
2024/03/22 11:00:56;;;;;;;33.50;26.50;;;;;;;21.40;56.15;100878.28;5029849;28;20041;-69
2024/03/22 11:04:06;;;;;;;39.65;27.55;;;;;;;21.20;57.96;100873.63;5053091;28;20044;-70
2024/03/22 11:07:20;;;;;;;36.38;26.75;;;;;;;21.23;56.46;100863.16;5053311;28;20049;-70
2024/03/22 11:10:28;;;;;;;;;;;;;;;21.01;57.54;100863.28;5053647;28;20056;-70
2024/03/22 11:13:36;;;;;;;35.58;26.83;;;;;;;20.97;57.47;100859.22;5053022;28;19916;-70
2024/03/22 11:16:47;;;;;;;36.72;27.45;;;;;;;21.03;58.04;100859.34;5052746;28;20041;-70
2024/03/22 11:19:52;;;;;;;38.15;26.88;;;;;;;20.90;57.23;100858.28;5052971;28;20041;-70
2024/03/22 11:22:56;;;;;;;36.55;28.05;;;;;;;21.02;58.30;100854.03;5052749;28;20049;-70
2024/03/22 11:26:01;;;;;;;37.90;27.35;;;;;;;20.88;58.72;100839.38;5040627;28;20041;-70
2024/03/22 11:29:06;;;;;;;39.40;28.52;;;;;;;21.05;59.32;100840.91;5052547;28;20053;-70
2024/03/22 11:32:12;;;;;;;36.70;28.45;;;;;;;21.14;59.64;100831.56;5052818;28;20049;-70
2024/03/22 11:35:19;;;;;;;36.13;26.50;;;;;;;21.12;59.67;100825.44;5052779;28;20049;-72
2024/03/22 11:38:26;;;;;;;35.45;25.70;;;;;;;21.11;58.09;100823.75;5052619;28;20053;-71
2024/03/22 11:41:32;;;;;;;38.03;26.52;;;;;;;21.04;58.70;100821.94;5052598;28;20049;-69
2024/03/22 11:44:40;;;;;;;40.17;26.63;;;;;;;21.01;58.82;100823.16;5052506;28;20045;-70
2024/03/22 11:47:47;;;;;;;41.28;27.88;;;;;;;21.07;59.68;100808.78;5052473;28;20049;-70
2024/03/22 11:50:52;;;;;;;35.88;25.05;;;;;;;20.91;58.87;100795.31;5052158;28;20041;-70
2024/03/22 11:53:58;;;;;;;37.10;26.42;;;;;;;20.94;59.19;100802.28;5051851;28;20037;-70
2024/03/22 11:57:04;;;;;;;32.53;24.35;;;;;;;21.23;58.56;100797.63;5053794;28;20049;-69
2024/03/22 12:00:09;;;;;;;37.22;25.55;;;;;;;21.36;58.33;100792.31;5054594;28;20484;-70
2024/03/22 12:03:21;;;;;;;35.35;24.05;;;;;;;21.24;57.41;100782.94;5054548;28;20037;-71
2024/03/22 12:06:27;;;;;;;32.38;23.88;;;;;;;21.18;56.44;100780.16;5054748;28;20480;-70
2024/03/22 12:09:52;;;;;;;32.25;23.70;;;;;;;21.40;56.06;100774.50;5063144;28;20049;-69
2024/03/22 12:12:58;;;;;;;28.48;20.67;;;;;;;21.11;52.96;100776.50;5053750;28;20392;-71
2024/03/22 12:16:22;;;;;;;26.08;20.90;;;;;;;21.15;52.16;100769.63;5056163;28;20053;-69
2024/03/22 12:19:26;;;;;;;25.92;18.95;;;;;;;21.09;53.83;100757.56;5056059;28;20048;-70
2024/03/22 12:22:32;;;;;;;33.92;22.40;;;;;;;21.42;54.81;100752.47;5055810;28;20041;-74
2024/03/22 12:25:38;;;;;;;27.42;18.65;;;;;;;21.48;49.90;100750.84;5032842;28;20041;-75
2024/03/22 12:28:43;;;;;;;30.00;19.42;;;;;;;21.53;49.17;100748.38;5055723;28;20388;-73
2024/03/22 12:31:48;;;;;;;29.88;19.75;;;;;;;21.36;50.17;100754.09;5055759;28;20041;-73
2024/03/22 12:34:53;;;;;;;25.75;17.92;;;;;;;21.54;49.95;100739.13;5055568;28;20037;-73
2024/03/22 12:38:15;;;;;;;21.25;15.38;;;;;;;21.61;47.29;100734.56;5055662;28;20044;-73
2024/03/22 12:41:20;;;;;;;20.95;15.43;;;;;;;21.61;47.36;100731.81;5056146;28;20044;-72
2024/03/22 12:44:24;;;;;;;22.60;15.68;;;;;;;21.63;47.11;100727.84;5043456;28;20044;-75
2024/03/22 12:47:30;;;;;;;24.17;15.43;;;;;;;21.67;47.43;100722.84;5055697;28;20090;-77
2024/03/22 12:50:36;;;;;;;22.15;15.45;;;;;;;21.64;47.62;100709.59;5041028;28;20052;-76
2024/03/22 12:53:43;;;;;;;18.27;14.10;;;;;;;21.82;47.71;100709.94;5073270;28;20383;-77
2024/03/22 12:56:48;;;;;;;16.85;12.75;;;;;;;21.70;44.97;100712.34;5071440;28;20308;-77
2024/03/22 12:59:53;;;;;;;20.27;12.20;;;;;;;21.64;45.39;100709.59;5072700;28;20044;-77
2024/03/22 13:02:59;;;;;;;18.65;12.50;;;;;;;21.55;44.76;100697.97;5073828;28;20049;-77
2024/03/22 13:06:05;;;;;;;12.85;10.50;;;;;;;21.66;44.84;100697.41;5074519;28;20040;-78
2024/03/22 13:09:12;;;;;;;14.73;11.40;;;;;;;21.79;44.11;100693.94;5075671;28;20388;-77
2024/03/22 13:12:17;;;;;;;14.32;10.88;;;;;;;21.77;42.69;100690.56;5075800;28;20384;-77
2024/03/22 13:15:22;;;;;;;14.65;10.15;;;;;;;21.64;42.82;100680.38;5075653;28;20048;-77
2024/03/22 13:18:26;;;;;;;17.42;12.10;;;;;;;21.63;44.30;100677.81;5075334;28;20049;-77
2024/03/22 13:21:31;;;;;;;16.73;11.25;;;;;;;21.75;45.15;100670.81;5075698;28;20037;-77
2024/03/22 13:24:36;;;;;;;18.77;10.77;;;;;;;21.59;41.86;100671.09;5075573;28;20472;-77
2024/03/22 13:27:42;;;;;;;11.93;7.97;;;;;;;21.34;41.54;100657.00;5075497;28;20460;-77
2024/03/22 13:31:06;;;;;;;14.25;8.40;;;;;;;21.64;41.61;100650.31;5075593;28;20055;-77
2024/03/22 13:34:10;;;;;;;15.00;10.50;;;;;;;21.82;43.23;100642.47;5074451;28;20166;-78
2024/03/22 13:37:15;;;;;;;13.32;9.30;;;;;;;22.01;41.44;100638.19;5074639;28;20053;-78
2024/03/22 13:40:20;;;;;;;16.42;11.25;;;;;;;22.03;43.13;100630.63;5074633;28;20055;-77
2024/03/22 13:43:27;;;;;;;13.80;10.35;;;;;;;22.07;43.90;100626.47;5074420;28;20052;-77
2024/03/22 13:46:32;;;;;;;14.63;10.70;;;;;;;21.98;40.94;100623.03;5075239;28;20040;-78
2024/03/22 13:49:40;;;;;;;15.50;9.65;;;;;;;22.12;41.25;100618.47;5074116;28;20052;-76
2024/03/22 13:53:04;;;;;;;13.73;8.90;;;;;;;22.12;40.76;100612.19;5053545;28;20052;-75
2024/03/22 13:56:08;;;;;;;17.27;12.07;;;;;;;22.16;43.45;100607.97;5053499;28;20052;-74
2024/03/22 13:59:15;;;;;;;20.58;13.00;;;;;;;22.16;44.06;100599.78;5045778;28;20033;-76
2024/03/22 14:02:22;;;;;;;13.75;8.77;;;;;;;22.20;40.76;100593.69;5054395;28;20037;-76